createdAt,value
2023-04-04T00:01:47.838Z,101543.94
2023-04-04T00:04:24.083Z,101538.21
2023-04-04T00:07:16.478Z,101535.71
2023-04-04T00:09:59.293Z,101529.58
2023-04-04T00:12:30.022Z,101528.91
2023-04-04T00:15:07.511Z,101524.69
2023-04-04T00:18:14.898Z,101521.83
2023-04-04T00:20:52.963Z,101517.94
2023-04-04T00:23:42.471Z,101510.77
2023-04-04T00:26:26.041Z,101509.34
2023-04-04T00:32:24.063Z,101501.27
2023-04-04T00:34:55.121Z,101498.92
2023-04-04T00:37:29.965Z,101493.77
2023-04-04T00:40:00.890Z,101493.23
2023-04-04T00:42:31.056Z,101491.12
2023-04-04T00:45:07.793Z,101488.33
2023-04-04T00:47:38.374Z,101489.64
2023-04-04T00:50:14.278Z,101484.11
2023-04-04T00:52:55.509Z,101483.64
2023-04-04T00:56:01.434Z,101478.68
2023-04-04T00:58:35.267Z,101478.58
2023-04-04T01:01:18.722Z,101476.65
2023-04-04T01:03:51.770Z,101473.67
2023-04-04T01:06:26.696Z,101471.02
2023-04-04T01:09:04.314Z,101471.78
2023-04-04T01:11:50.425Z,101470.35
2023-04-04T01:14:36.140Z,101468.18
2023-04-04T01:17:07.429Z,101465.50
2023-04-04T01:20:11.818Z,101467.77
2023-04-04T01:22:53.278Z,101465.90
2023-04-04T01:25:33.030Z,101471.30
2023-04-04T01:28:07.714Z,101471.58
2023-04-04T01:30:45.014Z,101468.96
2023-04-04T01:33:28.427Z,101463.94
2023-04-04T01:36:15.658Z,101460.58
2023-04-04T01:39:09.414Z,101460.79
2023-04-04T01:41:42.958Z,101456.19
2023-04-04T01:44:19.552Z,101454.84
2023-04-04T01:46:58.168Z,101455.33
2023-04-04T01:49:31.463Z,101449.84
2023-04-04T01:52:12.511Z,101444.88
2023-04-04T01:54:45.029Z,101445.05
2023-04-04T01:57:20.174Z,101440.09
2023-04-04T01:59:53.009Z,101437.52
2023-04-04T02:02:26.046Z,101438.05
2023-04-04T02:05:00.654Z,101434.11
2023-04-04T02:07:33.148Z,101435.98
2023-04-04T02:10:04.618Z,101432.21
2023-04-04T02:12:37.445Z,101428.95
2023-04-04T02:15:08.178Z,101423.11
2023-04-04T02:17:38.225Z,101426.16
2023-04-04T02:20:11.387Z,101423.90
2023-04-04T02:22:42.080Z,101427.49
2023-04-04T02:25:12.868Z,101426.95
2023-04-04T02:27:43.147Z,101428.48
2023-04-04T02:30:14.061Z,101427.98
2023-04-04T02:32:47.772Z,101430.27
2023-04-04T02:35:20.341Z,101429.98
2023-04-04T02:37:50.335Z,101433.40
2023-04-04T02:40:29.785Z,101431.69
2023-04-04T02:43:02.368Z,101427.41
2023-04-04T02:45:35.583Z,101427.75
2023-04-04T02:48:15.780Z,101431.88
2023-04-04T02:50:56.125Z,101432.77
2023-04-04T02:53:26.241Z,101435.36
2023-04-04T02:55:58.988Z,101437.56
2023-04-04T02:58:29.433Z,101432.90
2023-04-04T03:01:02.034Z,101435.66
2023-04-04T03:03:33.587Z,101434.98
2023-04-04T03:06:05.732Z,101431.70
2023-04-04T03:08:38.105Z,101430.80
2023-04-04T03:11:23.000Z,101428.05
2023-04-04T03:13:55.795Z,101429.24
2023-04-04T03:16:33.239Z,101429.10
2023-04-04T03:19:04.620Z,101426.38
2023-04-04T03:21:34.735Z,101422.92
2023-04-04T03:24:08.790Z,101422.03
2023-04-04T03:26:42.797Z,101420.07
2023-04-04T03:29:27.392Z,101419.50
2023-04-04T03:31:57.587Z,101418.46
2023-04-04T03:34:32.239Z,101414.71
2023-04-04T03:37:05.180Z,101414.52
2023-04-04T03:39:37.838Z,101418.45
2023-04-04T03:42:10.363Z,101425.23
2023-04-04T03:44:47.656Z,101424.70
2023-04-04T03:47:26.283Z,101424.70
2023-04-04T03:50:01.628Z,101422.83
2023-04-04T03:52:42.191Z,101424.92
2023-04-04T03:55:12.297Z,101423.25
2023-04-04T03:57:52.435Z,101424.81
2023-04-04T04:00:23.794Z,101424.68
2023-04-04T04:02:59.940Z,101425.58
2023-04-04T04:05:32.980Z,101428.36
2023-04-04T04:08:11.997Z,101427.35
2023-04-04T04:10:42.305Z,101430.75
2023-04-04T04:13:18.275Z,101432.59
2023-04-04T04:15:48.423Z,101431.55
2023-04-04T04:18:28.127Z,101428.63
2023-04-04T04:21:03.108Z,101424.70
2023-04-04T04:23:38.578Z,101427.30
2023-04-04T04:26:09.088Z,101425.59
2023-04-04T04:28:40.343Z,101426.19
2023-04-04T04:31:14.373Z,101422.80
2023-04-04T04:33:50.607Z,101423.52
2023-04-04T04:36:24.475Z,101423.69
2023-04-04T04:39:04.430Z,101424.21
2023-04-04T04:41:37.241Z,101425.27
2023-04-04T04:44:15.566Z,101423.72
2023-04-04T04:46:51.355Z,101426.42
2023-04-04T04:49:22.188Z,101430.20
2023-04-04T04:51:54.169Z,101430.05
2023-04-04T04:54:30.163Z,101428.48
2023-04-04T04:57:08.418Z,101431.41
2023-04-04T04:59:50.714Z,101430.90
2023-04-04T05:02:26.876Z,101426.30
2023-04-04T05:05:05.757Z,101430.17
2023-04-04T05:07:39.243Z,101428.36
2023-04-04T05:10:13.395Z,101426.41
2023-04-04T05:12:48.870Z,101431.04
2023-04-04T05:15:33.473Z,101436.83
2023-04-04T05:18:12.632Z,101435.81
2023-04-04T05:20:43.831Z,101438.07
2023-04-04T05:23:26.811Z,101444.09
2023-04-04T05:25:57.732Z,101442.45
2023-04-04T05:28:34.137Z,101444.30
2023-04-04T05:31:10.895Z,101445.47
2023-04-04T05:33:47.334Z,101441.98
2023-04-04T05:36:32.362Z,101442.73
2023-04-04T05:39:15.851Z,101447.05
2023-04-04T05:41:57.611Z,101444.79
2023-04-04T05:44:37.581Z,101446.47
2023-04-04T05:47:10.910Z,101449.17
2023-04-04T05:49:43.863Z,101445.75
2023-04-04T05:52:18.037Z,101445.35
2023-04-04T05:55:04.783Z,101443.72
2023-04-04T05:57:51.333Z,101443.65
2023-04-04T06:00:25.915Z,101440.13
2023-04-04T06:03:05.254Z,101440.52
2023-04-04T06:05:39.054Z,101442.95
2023-04-04T06:08:21.701Z,101438.33
2023-04-04T06:10:57.484Z,101440.92
2023-04-04T06:13:32.022Z,101437.30
2023-04-04T06:16:13.188Z,101433.96
2023-04-04T06:18:43.610Z,101433.88
2023-04-04T06:21:19.911Z,101429.35
2023-04-04T06:23:53.460Z,101427.89
2023-04-04T06:26:27.546Z,101429.35
2023-04-04T06:29:05.619Z,101425.73
2023-04-04T06:31:42.046Z,101421.80
2023-04-04T06:34:32.675Z,101424.02
2023-04-04T06:37:04.326Z,101424.58
2023-04-04T06:39:39.932Z,101425.48
2023-04-04T06:42:13.566Z,101423.36
2023-04-04T06:44:49.229Z,101417.69
2023-04-04T06:47:18.668Z,101420.55
2023-04-04T06:49:48.272Z,101419.48
2023-04-04T06:52:17.751Z,101417.09
2023-04-04T06:54:47.334Z,101414.71
2023-04-04T06:57:20.789Z,101415.44
2023-04-04T06:59:54.124Z,101411.36
2023-04-04T07:02:24.731Z,101408.48
2023-04-04T07:04:55.508Z,101404.89
2023-04-04T07:07:27.537Z,101409.37
2023-04-04T07:09:57.256Z,101410.10
2023-04-04T07:12:30.714Z,101410.44
2023-04-04T07:15:07.214Z,101409.10
2023-04-04T07:17:42.778Z,101411.02
2023-04-04T07:20:15.106Z,101407.81
2023-04-04T07:22:45.105Z,101408.05
2023-04-04T07:25:21.526Z,101411.90
2023-04-04T07:28:02.367Z,101416.27
2023-04-04T07:30:40.314Z,101414.53
2023-04-04T07:33:18.437Z,101418.21
2023-04-04T07:35:52.407Z,101417.77
2023-04-04T07:38:27.936Z,101417.56
2023-04-04T07:41:03.722Z,101422.57
2023-04-04T07:43:34.504Z,101418.86
2023-04-04T07:46:06.840Z,101419.80
2023-04-04T07:48:37.235Z,101416.45
2023-04-04T07:51:07.068Z,101414.64
2023-04-04T07:53:39.751Z,101413.82
2023-04-04T07:56:09.903Z,101414.29
2023-04-04T07:58:41.096Z,101416.73
2023-04-04T08:01:10.970Z,101416.48
2023-04-04T08:03:41.073Z,101419.84
2023-04-04T08:06:11.645Z,101418.45
2023-04-04T08:08:48.481Z,101417.08
2023-04-04T08:11:19.028Z,101417.95
2023-04-04T08:13:48.739Z,101422.41
2023-04-04T08:16:18.719Z,101419.66
2023-04-04T08:18:49.079Z,101417.41
2023-04-04T08:21:19.451Z,101416.42
2023-04-04T08:23:50.568Z,101417.53
2023-04-04T08:26:20.234Z,101414.86
2023-04-04T08:28:52.367Z,101415.84
2023-04-04T08:31:23.922Z,101416.46
2023-04-04T08:33:53.421Z,101414.30
2023-04-04T08:36:23.425Z,101414.52
2023-04-04T08:39:03.083Z,101408.39
2023-04-04T08:41:46.059Z,101405.06
2023-04-04T08:44:22.468Z,101403.45
2023-04-04T08:46:53.256Z,101398.67
2023-04-04T08:49:26.127Z,101394.92
2023-04-04T08:52:00.100Z,101395.10
2023-04-04T08:54:32.625Z,101396.88
2023-04-04T08:57:04.401Z,101398.16
2023-04-04T08:59:35.480Z,101397.36
2023-04-04T09:02:11.482Z,101398.25
2023-04-04T09:05:05.017Z,101396.21
2023-04-04T09:07:46.519Z,101384.70
2023-04-04T09:10:18.326Z,101382.91
2023-04-04T09:12:55.509Z,101381.93
2023-04-04T09:15:28.563Z,101381.53
2023-04-04T09:18:06.780Z,101379.44
2023-04-04T09:20:58.522Z,101381.67
2023-04-04T09:24:03.712Z,101376.52
2023-04-04T09:26:58.372Z,101380.67
2023-04-04T09:29:28.392Z,101380.83
2023-04-04T09:31:59.057Z,101380.98
2023-04-04T09:34:31.213Z,101380.86
2023-04-04T09:37:03.410Z,101384.56
2023-04-04T09:39:35.800Z,101384.61
2023-04-04T09:42:08.146Z,101386.01
2023-04-04T09:44:40.054Z,101389.25
2023-04-04T09:47:31.864Z,101387.84
2023-04-04T09:50:07.496Z,101386.44
2023-04-04T09:52:40.974Z,101386.13
2023-04-04T09:55:11.822Z,101389.92
2023-04-04T09:57:42.790Z,101392.52
2023-04-04T10:00:20.565Z,101397.20
2023-04-04T10:02:53.813Z,101393.28
2023-04-04T10:05:24.647Z,101394.48
2023-04-04T10:07:55.222Z,101395.02
2023-04-04T10:10:34.794Z,101395.92
2023-04-04T10:13:05.419Z,101392.83
2023-04-04T10:15:38.930Z,101393.66
2023-04-04T10:18:10.470Z,101392.77
2023-04-04T10:20:41.647Z,101389.80
2023-04-04T10:23:16.103Z,101381.66
2023-04-04T10:25:49.831Z,101379.58
2023-04-04T10:28:23.959Z,101378.39
2023-04-04T10:31:06.990Z,101378.23
2023-04-04T10:34:19.521Z,101377.39
2023-04-04T10:37:03.739Z,101377.52
2023-04-04T10:39:42.938Z,101378.02
2023-04-04T10:42:18.822Z,101373.38
2023-04-04T10:44:49.078Z,101375.10
2023-04-04T10:47:27.401Z,101377.52
2023-04-04T10:50:09.460Z,101376.30
2023-04-04T10:52:45.112Z,101376.11
2023-04-04T10:55:17.450Z,101378.38
2023-04-04T10:57:52.980Z,101382.23
2023-04-04T11:00:26.428Z,101383.80
2023-04-04T11:03:01.455Z,101382.94
2023-04-04T11:05:33.275Z,101385.05
2023-04-04T11:08:09.912Z,101381.65
2023-04-04T11:10:47.702Z,101380.46
2023-04-04T11:13:36.173Z,101377.04
2023-04-04T11:16:17.777Z,101375.68
2023-04-04T11:18:52.067Z,101375.52
2023-04-04T11:21:30.562Z,101375.35
2023-04-04T11:24:06.031Z,101370.20
2023-04-04T11:26:37.268Z,101366.05
2023-04-04T11:29:16.210Z,101365.16
2023-04-04T11:31:46.370Z,101362.23
2023-04-04T11:34:37.966Z,101356.38
2023-04-04T11:37:20.486Z,101358.13
2023-04-04T11:39:57.136Z,101357.13
2023-04-04T11:42:39.016Z,101355.95
2023-04-04T11:45:16.724Z,101355.98
2023-04-04T11:47:50.775Z,101351.04
2023-04-04T11:50:22.022Z,101342.45
2023-04-04T11:52:56.399Z,101334.57
2023-04-04T11:55:27.206Z,101337.70
2023-04-04T11:57:59.877Z,101338.58
2023-04-04T12:00:43.141Z,101332.36
2023-04-04T12:03:19.047Z,101331.16
2023-04-04T12:05:50.261Z,101323.91
2023-04-04T12:08:20.454Z,101323.75
2023-04-04T12:10:52.446Z,101318.77
2023-04-04T12:13:34.108Z,101317.05
2023-04-04T12:16:04.440Z,101313.42
2023-04-04T12:18:34.706Z,101315.67
2023-04-04T12:21:07.971Z,101312.55
2023-04-04T12:23:40.861Z,101306.86
2023-04-04T12:26:14.810Z,101307.90
2023-04-04T12:28:49.055Z,101305.31
2023-04-04T12:31:21.520Z,101308.77
2023-04-04T12:33:52.253Z,101306.17
2023-04-04T12:36:30.838Z,101302.21
2023-04-04T12:39:12.655Z,101296.33
2023-04-04T12:42:01.009Z,101293.92
2023-04-04T12:44:45.596Z,101288.39
2023-04-04T12:47:24.693Z,101287.54
2023-04-04T12:49:56.288Z,101279.08
2023-04-04T12:52:35.784Z,101285.98
2023-04-04T12:55:12.241Z,101281.83
2023-04-04T12:57:45.975Z,101280.09
2023-04-04T13:00:20.559Z,101279.74
2023-04-04T13:02:55.945Z,101273.89
2023-04-04T13:05:26.470Z,101276.65
2023-04-04T13:08:14.586Z,101275.97
2023-04-04T13:11:07.087Z,101274.08
2023-04-04T13:13:44.321Z,101271.33
2023-04-04T13:16:34.741Z,101265.11
2023-04-04T13:19:09.887Z,101262.70
2023-04-04T13:21:45.680Z,101263.39
2023-04-04T13:24:16.246Z,101268.39
2023-04-04T13:26:50.878Z,101268.91
2023-04-04T13:29:28.332Z,101273.40
2023-04-04T13:32:05.218Z,101271.33
2023-04-04T13:34:44.149Z,101268.02
2023-04-04T13:37:30.127Z,101270.80
2023-04-04T13:40:03.852Z,101265.98
2023-04-04T13:42:34.445Z,101257.69
2023-04-04T13:45:07.130Z,101262.52
2023-04-04T13:47:46.955Z,101257.34
2023-04-04T13:50:24.179Z,101252.00
2023-04-04T13:53:00.031Z,101255.46
2023-04-04T13:56:18.323Z,101251.67
2023-04-04T13:59:32.729Z,101246.48
2023-04-04T14:02:16.502Z,101249.41
2023-04-04T14:04:49.821Z,101247.88
2023-04-04T14:07:24.204Z,101247.71
2023-04-04T14:09:56.837Z,101248.90
2023-04-04T14:12:37.656Z,101245.80
2023-04-04T14:15:11.790Z,101242.34
2023-04-04T14:17:50.338Z,101238.38
2023-04-04T14:20:22.367Z,101239.06
2023-04-04T14:22:57.995Z,101236.14
2023-04-04T14:25:32.136Z,101231.84
2023-04-04T14:28:06.529Z,101228.73
2023-04-04T14:30:37.630Z,101227.17
2023-04-04T14:33:11.348Z,101227.16
2023-04-04T14:36:02.679Z,101221.82
2023-04-04T14:38:47.104Z,101213.36
2023-04-04T14:41:18.727Z,101207.50
2023-04-04T14:43:52.922Z,101204.91
2023-04-04T14:46:28.142Z,101207.67
2023-04-04T14:49:23.427Z,101209.75
2023-04-04T14:52:03.018Z,101211.66
2023-04-04T14:54:36.648Z,101205.11
2023-04-04T14:57:13.114Z,101210.27
2023-04-04T14:59:56.613Z,101204.23
2023-04-04T15:02:51.433Z,101203.89
2023-04-04T15:05:45.519Z,101207.86
2023-04-04T15:08:24.269Z,101206.48
2023-04-04T15:11:12.995Z,101206.99
2023-04-04T15:14:18.097Z,101206.30
2023-04-04T15:17:08.708Z,101207.33
2023-04-04T15:19:54.862Z,101206.63
2023-04-04T15:22:43.860Z,101207.66
2023-04-04T15:25:18.390Z,101208.88
2023-04-04T15:27:53.504Z,101204.90
2023-04-04T15:30:35.639Z,101203.70
2023-04-04T15:33:21.609Z,101198.55
2023-04-04T15:36:18.783Z,101196.64
2023-04-04T15:38:57.049Z,101196.64
2023-04-04T15:41:34.808Z,101197.85
2023-04-04T15:44:09.669Z,101197.34
2023-04-04T15:46:51.469Z,101193.71
2023-04-04T15:49:28.769Z,101188.71
2023-04-04T15:52:00.682Z,101183.72
2023-04-04T15:54:42.018Z,101177.67
2023-04-04T15:57:22.273Z,101176.64
2023-04-04T16:00:01.092Z,101176.65
2023-04-04T16:02:40.686Z,101183.03
2023-04-04T16:05:19.843Z,101185.27
2023-04-04T16:07:54.308Z,101180.96
2023-04-04T16:10:47.017Z,101184.59
2023-04-04T16:13:53.145Z,101179.74
2023-04-04T16:16:47.614Z,101179.22
2023-04-04T16:19:25.638Z,101178.20
2023-04-04T16:22:15.361Z,101181.13
2023-04-04T16:24:57.514Z,101180.92
2023-04-04T16:27:40.292Z,101181.96
2023-04-04T16:30:43.193Z,101178.70
2023-04-04T16:33:39.386Z,101171.11
2023-04-04T16:36:17.784Z,101171.45
2023-04-04T16:39:02.590Z,101169.38
2023-04-04T16:41:35.052Z,101169.02
2023-04-04T16:44:13.646Z,101171.96
2023-04-04T16:46:50.664Z,101171.44
2023-04-04T16:49:32.655Z,101164.20
2023-04-04T16:52:23.700Z,101160.75
2023-04-04T16:55:18.635Z,101161.77
2023-04-04T16:57:59.184Z,101159.88
2023-04-04T17:01:24.085Z,101161.23
2023-04-04T17:03:41.405Z,101156.58
2023-04-04T17:06:30.893Z,101154.18
2023-04-04T17:09:14.301Z,101154.52
2023-04-04T17:11:57.313Z,101159.33
2023-04-04T17:14:41.519Z,101156.57
2023-04-04T17:17:19.200Z,101156.58
2023-04-04T17:20:00.412Z,101155.70
2023-04-04T17:22:51.321Z,101153.63
2023-04-04T17:26:19.070Z,101152.24
2023-04-04T17:29:48.758Z,101153.61
2023-04-04T17:32:35.491Z,101156.72
2023-04-04T17:35:09.771Z,101158.96
2023-04-04T17:37:45.700Z,101160.00
2023-04-04T17:40:26.931Z,101158.79
2023-04-04T17:43:06.623Z,101159.81
2023-04-04T17:46:21.704Z,101160.16
2023-04-04T17:49:03.160Z,101164.63
2023-04-04T17:51:48.363Z,101163.92
2023-04-04T17:54:26.475Z,101164.60
2023-04-04T17:57:03.815Z,101165.96
2023-04-04T17:59:48.561Z,101164.23
2023-04-04T18:02:20.929Z,101159.74
2023-04-04T18:05:01.075Z,101161.11
2023-04-04T18:07:41.539Z,101163.67
2023-04-04T18:10:12.272Z,101166.42
2023-04-04T18:12:44.996Z,101165.04
2023-04-04T18:15:16.056Z,101164.00
2023-04-04T18:17:47.307Z,101161.42
2023-04-04T18:20:31.778Z,101161.59
2023-04-04T18:23:09.967Z,101162.60
2023-04-04T18:25:40.859Z,101166.38
2023-04-04T18:28:17.164Z,101165.33
2023-04-04T18:30:59.568Z,101161.52
2023-04-04T18:33:31.260Z,101160.48
2023-04-04T18:37:27.964Z,101163.04
2023-04-04T18:40:08.702Z,101163.00
2023-04-04T18:42:43.953Z,101162.30
2023-04-04T18:45:14.656Z,101163.34
2023-04-04T18:47:44.901Z,101163.88
2023-04-04T18:50:15.934Z,101160.25
2023-04-04T18:52:46.309Z,101157.33
2023-04-04T18:55:16.245Z,101156.82
2023-04-04T18:57:48.982Z,101161.80
2023-04-04T19:00:20.659Z,101163.52
2023-04-04T19:03:11.885Z,101166.63
2023-04-04T19:05:49.824Z,101165.42
2023-04-04T19:08:20.993Z,101167.84
2023-04-04T19:10:57.668Z,101168.36
2023-04-04T19:13:30.567Z,101167.50
2023-04-04T19:16:20.943Z,101169.21
2023-04-04T19:19:23.063Z,101169.89
2023-04-04T19:21:58.122Z,101170.56
2023-04-04T19:24:42.746Z,101167.48
2023-04-04T19:27:14.911Z,101166.27
2023-04-04T19:29:50.550Z,101160.27
2023-04-04T19:32:32.097Z,101159.93
2023-04-04T19:35:03.037Z,101159.77
2023-04-04T19:37:32.844Z,101156.86
2023-04-04T19:40:40.022Z,101157.56
2023-04-04T19:43:22.213Z,101159.62
2023-04-04T19:46:05.788Z,101162.37
2023-04-04T19:48:59.362Z,101161.50
2023-04-04T19:52:12.526Z,101157.02
2023-04-04T19:54:51.645Z,101148.54
2023-04-04T19:57:28.312Z,101150.80
2023-04-04T20:00:34.326Z,101147.20
2023-04-04T20:03:35.732Z,101146.69
2023-04-04T20:06:28.996Z,101145.83
2023-04-04T20:09:10.217Z,101145.14
2023-04-04T20:11:49.851Z,101143.77
2023-04-04T20:14:29.443Z,101141.88
2023-04-04T20:17:02.391Z,101136.88
2023-04-04T20:19:37.036Z,101132.92
2023-04-04T20:22:17.317Z,101134.64
2023-04-04T20:24:48.897Z,101131.70
2023-04-04T20:27:27.935Z,101133.77
2023-04-04T20:30:13.814Z,101130.31
2023-04-04T20:32:47.430Z,101132.55
2023-04-04T20:35:32.794Z,101132.20
2023-04-04T20:38:08.538Z,101131.17
2023-04-04T20:40:57.492Z,101131.52
2023-04-04T20:43:31.486Z,101133.58
2023-04-04T20:46:07.374Z,101140.44
2023-04-04T20:48:41.988Z,101142.00
2023-04-04T20:51:33.827Z,101135.98
2023-04-04T20:54:08.402Z,101127.73
2023-04-04T20:56:52.900Z,101128.23
2023-04-04T20:59:44.029Z,101133.38
2023-04-04T21:02:24.869Z,101139.56
2023-04-04T21:04:56.045Z,101132.67
2023-04-04T21:07:46.334Z,101134.90
2023-04-04T21:10:33.181Z,101128.86
2023-04-04T21:13:13.458Z,101130.73
2023-04-04T21:15:48.303Z,101133.30
2023-04-04T21:18:40.911Z,101133.80
2023-04-04T21:21:59.960Z,101128.98
2023-04-04T21:24:49.049Z,101127.40
2023-04-04T21:27:39.641Z,101121.91
2023-04-04T21:30:46.741Z,101124.32
2023-04-04T21:33:20.049Z,101122.62
2023-04-04T21:36:01.012Z,101120.41
2023-04-04T21:38:35.933Z,101116.28
2023-04-04T21:41:27.252Z,101116.61
2023-04-04T21:44:13.720Z,101112.98
2023-04-04T21:47:00.358Z,101109.68
2023-04-04T21:49:42.269Z,101109.34
2023-04-04T21:56:12.204Z,101110.17
2023-04-04T21:59:11.241Z,101105.86
2023-04-04T22:03:36.961Z,101103.80
2023-04-04T22:12:40.007Z,101094.39
2023-04-04T22:16:31.611Z,101095.55
2023-04-04T22:54:39.112Z,101098.88
2023-04-04T22:57:51.948Z,101098.84
2023-04-04T23:00:36.494Z,101097.08
2023-04-04T23:03:24.124Z,101096.20
2023-04-04T23:06:17.046Z,101095.27
2023-04-04T23:09:27.959Z,101096.02
2023-04-04T23:12:11.567Z,101101.05
2023-04-04T23:14:52.410Z,101099.22
2023-04-04T23:17:31.233Z,101096.05
2023-04-04T23:20:29.292Z,101092.70
2023-04-04T23:23:02.855Z,101091.04
2023-04-04T23:31:22.499Z,101093.86
2023-04-04T23:35:20.860Z,101093.19
2023-04-04T23:38:00.300Z,101085.55
2023-04-04T23:40:35.236Z,101079.52
2023-04-04T23:43:08.066Z,101083.09
2023-04-04T23:45:46.572Z,101080.81
2023-04-04T23:48:33.067Z,101079.36
2023-04-04T23:51:15.526Z,101077.55
2023-04-04T23:53:51.095Z,101074.72
2023-04-04T23:56:23.859Z,101074.97
2023-04-04T23:58:58.967Z,101072.34
